Koushinmaru No.5 — JL6695 — position and weather

sailwx.info

Track history (hours):
 
Tides and Currents Weather Stations Pressure Air Temp Water Temp Dewpoint Dewpoint Depression Visibility Wind Speed Wind Dir Waves Ship Positions

Koushinmaru No.5

Last reported at 2014-Oct-20 22:12 UTC. Time now 2014-Oct-21 12:04 UTC.
Position N 35°15' E 139°46'.

Length 75 m; draft 5 m.

Type: Cargo ship. MMSI: 431301703.

Date/timePositionNaut miles runAvg speedWind from/ knotsBaromVisibWave heightAir tempDewpointWater temp
2014-Oct-20 22:12N 35°15' E 139°46'711.3
2014-Oct-20 21:33N 35°21' E 139°42'6 6.2
2014-Oct-20 20:34N 35°22' E 139°50'1 0.3
2014-Oct-20 16:25N 35°22' E 139°51'0 0.0
2014-Oct-20 03:34N 35°22' E 139°51'2 1.7
2014-Oct-20 02:34N 35°22' E 139°49'0 0.0
2014-Oct-20 01:33N 35°22' E 139°49'0 0.0
2014-Oct-20 00:33N 35°22' E 139°49'0 0.0
2014-Oct-19 23:33N 35°22' E 139°49'1110.7
2014-Oct-19 22:33N 35°32' E 139°51'6 0.2
2014-Oct-18 21:16N 35°37' E 139°48'3 3.9
2014-Oct-18 20:33N 35°36' E 139°50'2 0.5
2014-Oct-18 16:33N 35°35' E 139°53'1010.4
2014-Oct-18 15:33N 35°25' E 139°48'9 9.5
2014-Oct-18 14:33N 35°16' E 139°46'358 9.1
2014-Oct-16 23:04N 33°57' E 132°42'87 2.4
2014-Oct-15 10:09N 32°38' E 131°57'712.0
2014-Oct-15 09:33N 32°32' E 131°52'1313.0
2014-Oct-15 08:33N 32°21' E 131°44'1212.0
2014-Oct-15 07:33N 32°10' E 131°38'  
Track history (hours):
 
Tides and Currents Weather Stations Pressure Air Temp Water Temp Dewpoint Dewpoint Depression Visibility Wind Speed Wind Dir Waves Ship Positions

Koushinmaru No.5

Last reported at 2014-Oct-20 22:12 UTC. Time now 2014-Oct-21 12:04 UTC.
Position N 35°15' E 139°46'.

Length 75 m; draft 5 m.

Type: Cargo ship. MMSI: 431301703.

Date/timePositionNaut miles runAvg speedWind from/ knotsBaromVisibWave heightAir tempDewpointWater temp
2014-Oct-20 22:12N 35°15' E 139°46'711.3
2014-Oct-20 21:33N 35°21' E 139°42'6 6.2
2014-Oct-20 20:34N 35°22' E 139°50'1 0.3
2014-Oct-20 16:25N 35°22' E 139°51'0 0.0
2014-Oct-20 03:34N 35°22' E 139°51'2 1.7
2014-Oct-20 02:34N 35°22' E 139°49'0 0.0
2014-Oct-20 01:33N 35°22' E 139°49'0 0.0
2014-Oct-20 00:33N 35°22' E 139°49'0 0.0
2014-Oct-19 23:33N 35°22' E 139°49'1110.7
2014-Oct-19 22:33N 35°32' E 139°51'6 0.2
2014-Oct-18 21:16N 35°37' E 139°48'3 3.9
2014-Oct-18 20:33N 35°36' E 139°50'2 0.5
2014-Oct-18 16:33N 35°35' E 139°53'1010.4
2014-Oct-18 15:33N 35°25' E 139°48'9 9.5
2014-Oct-18 14:33N 35°16' E 139°46'358 9.1
2014-Oct-16 23:04N 33°57' E 132°42'87 2.4
2014-Oct-15 10:09N 32°38' E 131°57'712.0
2014-Oct-15 09:33N 32°32' E 131°52'1313.0
2014-Oct-15 08:33N 32°21' E 131°44'1212.0
2014-Oct-15 07:33N 32°10' E 131°38'  

Dump ship's entire track history